createdAt,value
2022-07-30T00:01:34.406Z,97158.63
2022-07-30T00:04:03.007Z,97146.16
2022-07-30T00:06:29.635Z,97153.69
2022-07-30T00:08:56.702Z,97139.47
2022-07-30T00:11:27.322Z,97141.00
2022-07-30T00:13:54.155Z,97134.41
2022-07-30T00:16:20.774Z,97140.06
2022-07-30T00:18:47.445Z,97136.47
2022-07-30T00:21:31.489Z,97129.19
2022-07-30T00:24:02.522Z,97123.53
2022-07-30T00:26:29.604Z,97127.97
2022-07-30T00:28:56.214Z,97133.94
2022-07-30T00:31:23.302Z,97130.31
2022-07-30T00:33:50.010Z,97130.16
2022-07-30T00:36:16.622Z,97122.31
2022-07-30T00:38:43.209Z,97119.28
2022-07-30T00:41:09.994Z,97125.41
2022-07-30T00:43:36.502Z,97116.75
2022-07-30T00:46:04.604Z,97121.63
2022-07-30T00:48:31.148Z,97113.94
2022-07-30T00:50:57.703Z,97123.91
2022-07-30T00:53:24.496Z,97116.34
2022-07-30T00:56:01.476Z,97106.66
2022-07-30T00:58:28.052Z,97114.97
2022-07-30T01:00:54.677Z,97116.81
2022-07-30T01:03:21.221Z,97106.28
2022-07-30T01:05:47.806Z,97117.00
2022-07-30T01:08:14.365Z,97106.66
2022-07-30T01:10:41.144Z,97114.19
2022-07-30T01:13:08.358Z,97110.63
2022-07-30T01:15:35.620Z,97105.59
2022-07-30T01:18:05.571Z,97114.19
2022-07-30T01:20:44.042Z,97109.75
2022-07-30T01:23:31.939Z,97106.94
2022-07-30T01:26:07.603Z,97103.53
2022-07-30T01:28:37.663Z,97106.19
2022-07-30T01:31:05.865Z,97110.84
2022-07-30T01:33:37.431Z,97105.63
2022-07-30T01:36:05.913Z,97106.09
2022-07-30T01:38:35.657Z,97108.94
2022-07-30T01:41:03.853Z,97112.59
2022-07-30T01:43:31.615Z,97107.66
2022-07-30T01:46:00.756Z,97110.47
2022-07-30T01:48:28.964Z,97108.94
2022-07-30T01:50:58.294Z,97111.34
2022-07-30T01:53:29.930Z,97107.16
2022-07-30T01:55:58.702Z,97111.91
2022-07-30T01:58:29.772Z,97110.78
2022-07-30T02:00:58.835Z,97102.72
2022-07-30T02:03:27.386Z,97096.13
2022-07-30T02:05:58.516Z,97101.31
2022-07-30T02:08:34.969Z,97094.31
2022-07-30T02:11:39.773Z,97092.66
2022-07-30T02:14:17.897Z,97087.63
2022-07-30T02:16:49.352Z,97088.28
2022-07-30T02:19:18.255Z,97082.88
2022-07-30T02:21:50.377Z,97085.69
2022-07-30T02:24:31.321Z,97091.53
2022-07-30T02:27:04.998Z,97083.56
2022-07-30T02:29:34.621Z,97089.00
2022-07-30T02:32:06.082Z,97087.41
2022-07-30T02:34:36.539Z,97080.16
2022-07-30T02:37:05.885Z,97083.38
2022-07-30T02:39:34.635Z,97082.97
2022-07-30T02:42:02.732Z,97077.56
2022-07-30T02:44:30.496Z,97072.81
2022-07-30T02:46:58.621Z,97075.72
2022-07-30T02:49:28.203Z,97068.06
2022-07-30T02:51:55.750Z,97067.75
2022-07-30T02:54:24.403Z,97067.75
2022-07-30T02:56:52.185Z,97062.59
2022-07-30T02:59:20.988Z,97067.22
2022-07-30T03:01:49.564Z,97064.94
2022-07-30T03:04:20.621Z,97059.50
2022-07-30T03:06:49.501Z,97064.66
2022-07-30T03:09:18.087Z,97065.41
2022-07-30T03:11:45.724Z,97067.22
2022-07-30T03:14:12.494Z,97070.41
2022-07-30T03:16:43.063Z,97067.22
2022-07-30T03:19:11.313Z,97066.38
2022-07-30T03:21:42.164Z,97065.81
2022-07-30T03:24:11.971Z,97067.22
2022-07-30T03:26:40.148Z,97068.22
2022-07-30T03:29:08.730Z,97073.53
2022-07-30T03:31:38.738Z,97068.47
2022-07-30T03:34:06.778Z,97076.03
2022-07-30T03:36:35.782Z,97073.06
2022-07-30T03:39:05.180Z,97074.59
2022-07-30T03:41:32.684Z,97082.03
2022-07-30T03:44:00.420Z,97082.03
2022-07-30T03:46:28.119Z,97088.22
2022-07-30T03:48:55.223Z,97085.53
2022-07-30T03:51:22.708Z,97082.59
2022-07-30T03:53:51.585Z,97086.09
2022-07-30T03:56:18.564Z,97079.94
2022-07-30T03:58:45.470Z,97078.13
2022-07-30T04:01:12.455Z,97087.47
2022-07-30T04:03:39.279Z,97089.03
2022-07-30T04:06:06.051Z,97086.22
2022-07-30T04:08:32.594Z,97086.09
2022-07-30T04:10:59.093Z,97089.75
2022-07-30T04:13:25.814Z,97089.91
2022-07-30T04:16:39.112Z,97093.84
2022-07-30T04:19:12.151Z,97090.78
2022-07-30T04:21:41.468Z,97090.13
2022-07-30T04:24:10.743Z,97096.81
2022-07-30T04:26:38.397Z,97095.84
2022-07-30T04:29:09.048Z,97092.31
2022-07-30T04:31:41.316Z,97100.16
2022-07-30T04:34:08.951Z,97102.13
2022-07-30T04:36:38.524Z,97105.06
2022-07-30T04:39:05.033Z,97098.91
2022-07-30T04:41:49.430Z,97104.09
2022-07-30T04:44:17.992Z,97101.44
2022-07-30T04:46:44.828Z,97101.97
2022-07-30T04:49:14.048Z,97111.66
2022-07-30T04:51:41.053Z,97105.44
2022-07-30T04:54:15.408Z,97115.38
2022-07-30T04:56:53.337Z,97119.28
2022-07-30T04:59:23.668Z,97112.81
2022-07-30T05:01:52.335Z,97114.53
2022-07-30T05:04:19.474Z,97112.88
2022-07-30T05:06:46.830Z,97110.63
2022-07-30T05:09:16.054Z,97122.91
2022-07-30T05:11:42.989Z,97117.00
2022-07-30T05:14:09.484Z,97119.88
2022-07-30T05:16:36.361Z,97124.91
2022-07-30T05:19:07.537Z,97116.78
2022-07-30T05:21:35.035Z,97111.91
2022-07-30T05:24:01.652Z,97119.88
2022-07-30T05:26:28.437Z,97121.88
2022-07-30T05:28:56.795Z,97124.41
2022-07-30T05:31:25.148Z,97134.50
2022-07-30T05:33:52.131Z,97122.66
2022-07-30T05:36:19.948Z,97136.91
2022-07-30T05:38:46.924Z,97131.81
2022-07-30T05:41:30.677Z,97140.31
2022-07-30T05:43:59.075Z,97142.59
2022-07-30T05:46:25.883Z,97133.88
2022-07-30T05:48:52.742Z,97143.00
2022-07-30T05:51:20.813Z,97138.91
2022-07-30T05:53:47.671Z,97133.56
2022-07-30T05:56:15.885Z,97138.44
2022-07-30T05:58:42.448Z,97139.28
2022-07-30T06:01:09.246Z,97137.53
2022-07-30T06:03:35.847Z,97138.97
2022-07-30T06:06:05.541Z,97142.63
2022-07-30T06:08:32.071Z,97153.03
2022-07-30T06:10:58.741Z,97140.22
2022-07-30T06:13:25.390Z,97143.63
2022-07-30T06:15:52.459Z,97149.75
2022-07-30T06:18:19.091Z,97158.50
2022-07-30T06:20:46.506Z,97157.69
2022-07-30T06:23:13.489Z,97164.88
2022-07-30T06:25:39.997Z,97161.09
2022-07-30T06:28:27.791Z,97169.19
2022-07-30T06:30:53.773Z,97162.41
2022-07-30T06:33:20.524Z,97171.69
2022-07-30T06:35:47.526Z,97168.53
2022-07-30T06:38:17.233Z,97175.72
2022-07-30T06:40:43.770Z,97182.97
2022-07-30T06:43:10.274Z,97179.97
2022-07-30T06:45:40.037Z,97174.91
2022-07-30T06:48:06.524Z,97174.44
2022-07-30T06:50:33.208Z,97174.00
2022-07-30T06:52:59.715Z,97174.81
2022-07-30T06:55:26.255Z,97184.59
2022-07-30T06:57:53.262Z,97172.59
2022-07-30T07:00:20.651Z,97178.66
2022-07-30T07:02:47.232Z,97178.34
2022-07-30T07:05:14.441Z,97186.91
2022-07-30T07:07:43.219Z,97187.00
2022-07-30T07:10:13.199Z,97193.22
2022-07-30T07:12:39.764Z,97184.13
2022-07-30T07:15:09.870Z,97186.13
2022-07-30T07:17:36.533Z,97185.00
2022-07-30T07:20:06.846Z,97184.22
2022-07-30T07:22:35.506Z,97172.69
2022-07-30T07:25:03.799Z,97172.03
2022-07-30T07:27:30.390Z,97169.28
2022-07-30T07:30:05.445Z,97163.00
2022-07-30T07:32:34.165Z,97168.91
2022-07-30T07:35:01.129Z,97160.84
2022-07-30T07:37:28.518Z,97171.16
2022-07-30T07:39:56.891Z,97160.38
2022-07-30T07:42:23.908Z,97161.44
2022-07-30T07:44:50.494Z,97168.09
2022-07-30T07:47:18.203Z,97162.31
2022-07-30T07:49:44.703Z,97166.97
2022-07-30T07:52:12.762Z,97174.25
2022-07-30T07:54:39.879Z,97162.41
2022-07-30T07:57:10.272Z,97159.50
2022-07-30T07:59:40.732Z,97157.31
2022-07-30T08:02:08.579Z,97155.50
2022-07-30T08:04:35.985Z,97157.47
2022-07-30T08:07:03.305Z,97157.72
2022-07-30T08:09:44.098Z,97162.41
2022-07-30T08:12:12.581Z,97154.69
2022-07-30T08:14:41.930Z,97166.16
2022-07-30T08:17:09.283Z,97158.22
2022-07-30T08:19:36.258Z,97158.72
2022-07-30T08:22:02.797Z,97163.00
2022-07-30T08:24:30.113Z,97155.50
2022-07-30T08:26:57.016Z,97151.84
2022-07-30T08:29:23.851Z,97156.28
2022-07-30T08:31:50.384Z,97153.81
2022-07-30T08:34:18.321Z,97158.75
2022-07-30T08:36:46.139Z,97155.38
2022-07-30T08:39:12.769Z,97154.72
2022-07-30T08:41:42.098Z,97155.97
2022-07-30T08:44:12.761Z,97159.72
2022-07-30T08:46:47.542Z,97161.25
2022-07-30T08:49:14.929Z,97155.56
2022-07-30T08:51:43.205Z,97161.53
2022-07-30T08:54:10.514Z,97157.38
2022-07-30T08:56:37.361Z,97162.69
2022-07-30T08:59:05.521Z,97158.56
2022-07-30T09:01:32.143Z,97159.47
2022-07-30T09:03:58.935Z,97160.09
2022-07-30T09:06:25.625Z,97160.63
2022-07-30T09:08:52.179Z,97154.22
2022-07-30T09:11:18.904Z,97158.97
2022-07-30T09:13:45.660Z,97168.09
2022-07-30T09:16:23.743Z,97151.72
2022-07-30T09:18:51.424Z,97158.81
2022-07-30T09:21:24.566Z,97150.06
2022-07-30T09:24:04.665Z,97162.66
2022-07-30T09:26:35.578Z,97154.25
2022-07-30T09:29:23.165Z,97153.38
2022-07-30T09:31:56.893Z,97150.53
2022-07-30T09:34:43.646Z,97159.56
2022-07-30T09:37:10.547Z,97171.03
2022-07-30T09:39:43.268Z,97167.44
2022-07-30T09:42:28.141Z,97167.63
2022-07-30T09:45:07.976Z,97160.13
2022-07-30T09:47:39.771Z,97160.78
2022-07-30T09:50:10.453Z,97162.44
2022-07-30T09:52:44.342Z,97158.25
2022-07-30T09:55:30.351Z,97160.25
2022-07-30T09:58:00.068Z,97154.84
2022-07-30T10:00:30.661Z,97150.13
2022-07-30T10:02:57.681Z,97157.28
2022-07-30T10:05:24.971Z,97143.59
2022-07-30T10:08:09.137Z,97143.03
2022-07-30T10:10:47.279Z,97129.44
2022-07-30T10:13:20.903Z,97134.19
2022-07-30T10:15:50.063Z,97136.59
2022-07-30T10:18:18.158Z,97132.16
2022-07-30T10:20:45.637Z,97134.69
2022-07-30T10:23:15.806Z,97142.78
2022-07-30T10:25:49.454Z,97137.13
2022-07-30T10:28:24.130Z,97139.31
2022-07-30T10:30:51.630Z,97131.56
2022-07-30T10:33:36.461Z,97127.53
2022-07-30T10:36:05.820Z,97127.75
2022-07-30T10:38:39.180Z,97128.94
2022-07-30T10:41:42.843Z,97112.53
2022-07-30T10:44:47.734Z,97122.66
2022-07-30T10:47:18.580Z,97119.50
2022-07-30T10:50:04.906Z,97112.13
2022-07-30T10:52:55.866Z,97119.88
2022-07-30T10:55:37.128Z,97110.72
2022-07-30T10:58:09.236Z,97107.91
2022-07-30T11:00:56.942Z,97124.41
2022-07-30T11:03:41.545Z,97115.59
2022-07-30T11:06:14.890Z,97124.88
2022-07-30T11:08:48.021Z,97113.38
2022-07-30T11:11:21.009Z,97105.66
2022-07-30T11:14:07.678Z,97107.03
2022-07-30T11:16:37.257Z,97098.03
2022-07-30T11:19:53.181Z,97108.41
2022-07-30T11:22:38.901Z,97109.41
2022-07-30T11:25:27.453Z,97102.66
2022-07-30T11:28:42.185Z,97118.22
2022-07-30T11:31:57.958Z,97120.56
2022-07-30T11:34:35.095Z,97126.31
2022-07-30T11:37:18.517Z,97115.09
2022-07-30T11:39:55.190Z,97123.88
2022-07-30T11:42:29.405Z,97125.28
2022-07-30T11:45:23.198Z,97123.59
2022-07-30T11:47:53.289Z,97125.34
2022-07-30T11:50:25.867Z,97118.44
2022-07-30T11:53:03.934Z,97125.78
2022-07-30T11:55:34.903Z,97123.72
2022-07-30T11:58:04.900Z,97126.03
2022-07-30T12:00:39.744Z,97121.13
2022-07-30T12:03:14.701Z,97118.19
2022-07-30T12:05:42.110Z,97120.88
2022-07-30T12:08:31.610Z,97134.84
2022-07-30T12:11:00.707Z,97134.19
2022-07-30T12:13:44.810Z,97126.22
2022-07-30T12:16:16.583Z,97121.09
2022-07-30T12:18:44.138Z,97122.63
2022-07-30T12:21:12.733Z,97116.34
2022-07-30T12:23:41.931Z,97115.50
2022-07-30T12:26:08.831Z,97127.25
2022-07-30T12:28:36.474Z,97135.31
2022-07-30T12:31:04.388Z,97137.44
2022-07-30T12:33:31.753Z,97125.09
2022-07-30T12:36:00.522Z,97114.94
2022-07-30T12:38:28.501Z,97115.41
2022-07-30T12:40:56.813Z,97110.47
2022-07-30T12:43:46.277Z,97115.56
2022-07-30T12:46:16.438Z,97127.16
2022-07-30T12:49:10.316Z,97130.50
2022-07-30T12:51:59.719Z,97122.13
2022-07-30T12:54:26.988Z,97130.03
2022-07-30T12:57:03.304Z,97122.91
2022-07-30T12:59:35.417Z,97122.06
2022-07-30T13:02:03.586Z,97120.09
2022-07-30T13:04:31.598Z,97132.25
2022-07-30T13:07:10.485Z,97133.72
2022-07-30T13:09:38.098Z,97141.09
2022-07-30T13:12:04.923Z,97131.13
2022-07-30T13:14:31.750Z,97136.53
2022-07-30T13:16:58.793Z,97142.97
2022-07-30T13:19:26.739Z,97137.34
2022-07-30T13:21:53.238Z,97130.41
2022-07-30T13:24:20.161Z,97124.75
2022-07-30T13:26:46.850Z,97128.69
2022-07-30T13:29:13.830Z,97122.63
2022-07-30T13:31:43.204Z,97124.06
2022-07-30T13:34:12.159Z,97122.72
2022-07-30T13:36:39.207Z,97137.84
2022-07-30T13:39:05.763Z,97120.81
2022-07-30T13:41:33.206Z,97119.53
2022-07-30T13:43:59.807Z,97118.34
2022-07-30T13:46:26.772Z,97119.25
2022-07-30T13:48:53.566Z,97103.75
2022-07-30T13:51:20.386Z,97106.34
2022-07-30T13:53:46.978Z,97114.06
2022-07-30T13:56:13.795Z,97088.66
2022-07-30T13:58:43.316Z,97090.66
2022-07-30T14:01:17.709Z,97078.00
2022-07-30T14:03:50.874Z,97074.19
2022-07-30T14:06:18.782Z,97067.28
2022-07-30T14:08:45.372Z,97086.72
2022-07-30T14:11:13.991Z,97082.47
2022-07-30T14:13:40.709Z,97091.06
2022-07-30T14:16:28.518Z,97089.25
2022-07-30T14:18:57.404Z,97097.63
2022-07-30T14:21:24.399Z,97078.88
2022-07-30T14:23:50.989Z,97072.47
2022-07-30T14:26:17.539Z,97070.00
2022-07-30T14:28:44.117Z,97069.34
2022-07-30T14:31:11.125Z,97068.53
2022-07-30T14:33:38.241Z,97072.22
2022-07-30T14:36:05.001Z,97068.94
2022-07-30T14:38:31.610Z,97073.97
2022-07-30T14:40:58.110Z,97075.56
2022-07-30T14:43:27.278Z,97073.59
2022-07-30T14:45:55.176Z,97074.09
2022-07-30T14:48:22.199Z,97074.72
2022-07-30T14:51:12.994Z,97064.56
2022-07-30T14:53:37.687Z,97064.75
2022-07-30T14:56:05.556Z,97069.94
2022-07-30T14:58:32.164Z,97062.78
2022-07-30T15:01:01.125Z,97064.34
2022-07-30T15:03:44.443Z,97068.22
2022-07-30T15:06:15.107Z,97074.19
2022-07-30T15:08:42.513Z,97064.22
2022-07-30T15:11:09.571Z,97069.50
2022-07-30T15:13:37.130Z,97060.91
2022-07-30T15:16:16.629Z,97073.84
2022-07-30T15:18:43.183Z,97068.19
2022-07-30T15:21:09.678Z,97072.47
2022-07-30T15:23:36.442Z,97078.09
2022-07-30T15:26:03.037Z,97071.69
2022-07-30T15:28:30.655Z,97081.00
2022-07-30T15:30:58.365Z,97087.38
2022-07-30T15:33:25.653Z,97082.88
2022-07-30T15:35:54.056Z,97088.41
2022-07-30T15:38:23.694Z,97084.97
2022-07-30T15:40:50.358Z,97076.31
2022-07-30T15:43:17.134Z,97075.69
2022-07-30T15:45:52.407Z,97087.81
2022-07-30T15:48:24.680Z,97085.22
2022-07-30T15:51:04.392Z,97088.94
2022-07-30T15:53:32.112Z,97097.06
2022-07-30T15:55:59.818Z,97094.97
2022-07-30T15:58:26.627Z,97103.47
2022-07-30T16:00:53.411Z,97100.38
2022-07-30T16:03:20.013Z,97094.78
2022-07-30T16:05:51.359Z,97100.56
2022-07-30T16:08:22.436Z,97091.44
2022-07-30T16:10:49.646Z,97100.28
2022-07-30T16:13:16.255Z,97100.03
2022-07-30T16:15:42.880Z,97093.84
2022-07-30T16:18:09.511Z,97107.97
2022-07-30T16:20:36.082Z,97106.50
2022-07-30T16:23:02.580Z,97108.22
2022-07-30T16:25:29.221Z,97113.88
2022-07-30T16:27:55.739Z,97112.81
2022-07-30T16:30:24.342Z,97115.34
2022-07-30T16:32:56.188Z,97117.03
2022-07-30T16:35:23.178Z,97118.88
2022-07-30T16:37:49.793Z,97117.56
2022-07-30T16:40:16.836Z,97117.44
2022-07-30T16:42:43.378Z,97112.88
2022-07-30T16:45:10.350Z,97116.50
2022-07-30T16:47:36.937Z,97123.34
2022-07-30T16:50:03.720Z,97120.66
2022-07-30T16:52:30.313Z,97120.44
2022-07-30T16:54:56.827Z,97124.00
2022-07-30T16:57:23.486Z,97128.75
2022-07-30T16:59:50.030Z,97122.53
2022-07-30T17:02:17.760Z,97128.31
2022-07-30T17:04:44.332Z,97126.19
2022-07-30T17:07:10.947Z,97132.03
2022-07-30T17:09:37.511Z,97128.63
2022-07-30T17:12:11.814Z,97131.09
2022-07-30T17:14:40.142Z,97133.03
2022-07-30T17:17:09.693Z,97129.31
2022-07-30T17:19:40.168Z,97137.63
2022-07-30T17:22:06.749Z,97145.94
2022-07-30T17:24:33.255Z,97138.13
2022-07-30T17:26:59.939Z,97145.63
2022-07-30T17:29:26.559Z,97143.03
2022-07-30T17:31:53.202Z,97148.28
2022-07-30T17:34:22.106Z,97157.13
2022-07-30T17:36:52.702Z,97160.69
2022-07-30T17:40:28.495Z,97151.78
2022-07-30T17:42:08.736Z,97166.53
2022-07-30T17:44:35.503Z,97172.41
2022-07-30T17:47:03.205Z,97165.09
2022-07-30T17:49:29.985Z,97164.06
2022-07-30T17:51:56.807Z,97170.13
2022-07-30T17:54:23.420Z,97171.28
2022-07-30T17:56:50.040Z,97177.13
2022-07-30T17:59:16.569Z,97169.91
2022-07-30T18:01:43.414Z,97180.31
2022-07-30T18:04:09.971Z,97181.16
2022-07-30T18:06:36.572Z,97182.56
2022-07-30T18:09:04.974Z,97184.72
2022-07-30T18:11:31.725Z,97188.13
2022-07-30T18:13:58.559Z,97191.13
2022-07-30T18:16:25.592Z,97200.72
2022-07-30T18:18:52.878Z,97192.06
2022-07-30T18:21:19.507Z,97195.91
2022-07-30T18:23:46.087Z,97204.88
2022-07-30T18:26:12.726Z,97195.56
2022-07-30T18:28:39.355Z,97200.13
2022-07-30T18:31:06.046Z,97204.22
2022-07-30T18:33:32.609Z,97206.88
2022-07-30T18:35:59.299Z,97207.94
2022-07-30T18:38:25.848Z,97210.97
2022-07-30T18:40:58.692Z,97215.50
2022-07-30T18:43:30.107Z,97218.88
2022-07-30T18:45:57.886Z,97224.91
2022-07-30T18:48:25.285Z,97230.63
2022-07-30T18:50:53.097Z,97226.94
2022-07-30T18:53:20.076Z,97225.63
2022-07-30T18:55:47.080Z,97229.81
2022-07-30T18:58:13.595Z,97239.97
2022-07-30T19:00:43.188Z,97232.78
2022-07-30T19:03:17.406Z,97240.13
2022-07-30T19:05:45.667Z,97245.47
2022-07-30T19:08:12.265Z,97241.72
2022-07-30T19:10:39.947Z,97247.50
2022-07-30T19:13:06.775Z,97252.91
2022-07-30T19:15:33.355Z,97257.22
2022-07-30T19:17:59.938Z,97260.50
2022-07-30T19:20:26.773Z,97259.28
2022-07-30T19:23:01.346Z,97263.22
2022-07-30T19:25:29.670Z,97267.97
2022-07-30T19:27:56.422Z,97267.78
2022-07-30T19:30:23.307Z,97274.38
2022-07-30T19:32:50.147Z,97269.22
2022-07-30T19:35:16.876Z,97285.22
2022-07-30T19:37:43.496Z,97287.59
2022-07-30T19:40:10.820Z,97296.03
2022-07-30T19:42:41.397Z,97296.19
2022-07-30T19:45:11.166Z,97299.41
2022-07-30T19:47:39.776Z,97304.75
2022-07-30T19:50:10.556Z,97297.06
2022-07-30T19:52:38.430Z,97304.75
2022-07-30T19:55:17.162Z,97307.34
2022-07-30T19:57:54.246Z,97307.59
2022-07-30T20:00:25.450Z,97309.31
2022-07-30T20:02:52.917Z,97314.16
2022-07-30T20:05:20.012Z,97314.94
2022-07-30T20:07:49.076Z,97314.72
2022-07-30T20:10:15.732Z,97316.59
2022-07-30T20:12:48.881Z,97323.88
2022-07-30T20:15:17.312Z,97330.78
2022-07-30T20:17:43.957Z,97326.47
2022-07-30T20:20:13.597Z,97329.56
2022-07-30T20:22:43.212Z,97335.84
2022-07-30T20:25:11.057Z,97337.41
2022-07-30T20:27:38.835Z,97342.75
2022-07-30T20:30:07.202Z,97341.34
2022-07-30T20:32:34.372Z,97344.84
2022-07-30T20:35:00.932Z,97342.88
2022-07-30T20:37:29.188Z,97345.13
2022-07-30T20:39:56.071Z,97343.31
2022-07-30T20:42:23.946Z,97339.13
2022-07-30T20:45:11.008Z,97354.81
2022-07-30T20:47:39.843Z,97342.47
2022-07-30T20:50:10.015Z,97343.59
2022-07-30T20:52:40.185Z,97347.38
2022-07-30T20:55:14.399Z,97343.59
2022-07-30T20:57:57.175Z,97351.16
2022-07-30T21:00:28.953Z,97347.91
2022-07-30T21:02:55.523Z,97348.00
2022-07-30T21:05:22.191Z,97347.78
2022-07-30T21:07:52.840Z,97342.47
2022-07-30T21:10:21.719Z,97346.81
2022-07-30T21:12:53.070Z,97345.28
2022-07-30T21:15:24.494Z,97343.56
2022-07-30T21:17:53.300Z,97345.69
2022-07-30T21:20:27.433Z,97345.53
2022-07-30T21:22:56.260Z,97344.16
2022-07-30T21:25:32.502Z,97339.53
2022-07-30T21:28:02.917Z,97344.44
2022-07-30T21:30:31.230Z,97345.41
2022-07-30T21:32:59.460Z,97339.53
2022-07-30T21:35:31.859Z,97346.97
2022-07-30T21:37:59.032Z,97344.44
2022-07-30T21:40:25.719Z,97343.31
2022-07-30T21:42:54.297Z,97346.94
2022-07-30T21:45:21.133Z,97344.69
2022-07-30T21:47:48.323Z,97347.59
2022-07-30T21:50:16.195Z,97345.19
2022-07-30T21:52:43.823Z,97348.56
2022-07-30T21:55:13.549Z,97347.00
2022-07-30T21:57:40.949Z,97342.09
2022-07-30T22:00:14.886Z,97344.34
2022-07-30T22:02:52.991Z,97341.06
2022-07-30T22:05:21.788Z,97345.97
2022-07-30T22:07:51.547Z,97339.06
2022-07-30T22:10:21.580Z,97341.06
2022-07-30T22:12:49.693Z,97349.03
2022-07-30T22:15:18.258Z,97346.13
2022-07-30T22:17:58.099Z,97345.97
2022-07-30T22:20:31.615Z,97339.41
2022-07-30T22:23:04.609Z,97336.44
2022-07-30T22:25:39.875Z,97333.47
2022-07-30T22:28:10.755Z,97329.28
2022-07-30T22:30:40.697Z,97328.75
2022-07-30T22:33:09.828Z,97326.19
2022-07-30T22:35:37.291Z,97328.31
2022-07-30T22:38:05.121Z,97329.75
2022-07-30T22:40:32.326Z,97329.00
2022-07-30T22:42:58.896Z,97327.03
2022-07-30T22:45:42.326Z,97330.41
2022-07-30T22:48:17.499Z,97331.94
2022-07-30T22:50:46.435Z,97337.97
2022-07-30T22:54:10.560Z,97333.56
2022-07-30T22:56:05.952Z,97334.69
2022-07-30T22:58:40.784Z,97331.31
2022-07-30T23:01:10.873Z,97336.44
2022-07-30T23:03:37.692Z,97329.00
2022-07-30T23:06:04.309Z,97332.69
2022-07-30T23:08:33.079Z,97329.34
2022-07-30T23:11:00.089Z,97333.94
2022-07-30T23:13:27.596Z,97332.41
2022-07-30T23:15:54.554Z,97328.63
2022-07-30T23:18:21.087Z,97325.31
2022-07-30T23:20:47.579Z,97326.84
2022-07-30T23:23:15.091Z,97320.41
2022-07-30T23:25:41.961Z,97320.88
2022-07-30T23:28:08.541Z,97320.63
2022-07-30T23:30:35.140Z,97319.63
2022-07-30T23:33:01.724Z,97325.81
2022-07-30T23:35:29.834Z,97324.56
2022-07-30T23:37:57.591Z,97329.03
2022-07-30T23:40:24.320Z,97327.91
2022-07-30T23:42:51.844Z,97328.34
2022-07-30T23:45:19.673Z,97329.72
2022-07-30T23:48:00.694Z,97327.06
2022-07-30T23:50:30.082Z,97334.06
2022-07-30T23:52:56.966Z,97329.72
2022-07-30T23:55:24.306Z,97336.44
2022-07-30T23:57:50.855Z,97335.03
